createdAt,value
2022-10-07T00:00:57.322Z,26.23
2022-10-07T00:03:26.895Z,33.23
2022-10-07T00:06:02.441Z,59.33
2022-10-07T00:08:31.606Z,39.23
2022-10-07T00:10:59.398Z,49.10
2022-10-07T00:13:27.171Z,105.23
2022-10-07T00:15:54.847Z,41.07
2022-10-07T00:18:22.495Z,70.40
2022-10-07T00:20:50.115Z,74.17
2022-10-07T00:23:17.747Z,65.50
2022-10-07T00:25:46.752Z,38.97
2022-10-07T00:28:14.422Z,47.07
2022-10-07T00:30:42.128Z,63.83
2022-10-07T00:33:09.800Z,55.50
2022-10-07T00:35:37.371Z,68.40
2022-10-07T00:38:04.917Z,39.90
2022-10-07T00:40:32.887Z,54.30
2022-10-07T00:43:01.757Z,58.20
2022-10-07T00:45:29.711Z,48.63
2022-10-07T00:47:57.403Z,39.33
2022-10-07T00:50:29.377Z,32.27
2022-10-07T00:53:00.269Z,40.10
2022-10-07T00:55:30.690Z,28.33
2022-10-07T00:58:03.740Z,28.83
2022-10-07T01:00:31.277Z,24.27
2022-10-07T01:03:00.028Z,41.93
2022-10-07T01:05:27.627Z,49.80
2022-10-07T01:07:59.061Z,59.40
2022-10-07T01:10:32.857Z,90.00
2022-10-07T01:13:09.070Z,76.23
2022-10-07T01:15:40.466Z,76.40
2022-10-07T01:18:17.810Z,66.70
2022-10-07T01:20:53.051Z,66.07
2022-10-07T01:23:39.000Z,67.33
2022-10-07T01:26:31.061Z,44.13
2022-10-07T01:29:01.908Z,54.80
2022-10-07T01:31:36.423Z,105.33
2022-10-07T01:34:05.792Z,102.80
2022-10-07T01:36:36.955Z,51.67
2022-10-07T01:39:10.731Z,83.07
2022-10-07T01:41:41.180Z,69.70
2022-10-07T01:44:11.578Z,41.17
2022-10-07T01:46:39.293Z,28.43
2022-10-07T01:49:07.424Z,31.90
2022-10-07T01:51:38.287Z,81.77
2022-10-07T01:54:16.952Z,66.50
2022-10-07T01:57:00.726Z,65.93
2022-10-07T01:59:53.179Z,60.87
2022-10-07T02:02:29.017Z,40.30
2022-10-07T02:05:11.087Z,45.67
2022-10-07T02:07:52.161Z,98.90
2022-10-07T02:10:27.273Z,105.07
2022-10-07T02:13:03.465Z,78.90
2022-10-07T02:15:37.478Z,56.97
2022-10-07T02:18:09.398Z,80.40
2022-10-07T02:20:39.870Z,62.17
2022-10-07T02:23:10.410Z,56.00
2022-10-07T02:25:42.041Z,44.73
2022-10-07T02:28:13.835Z,42.43
2022-10-07T02:30:44.271Z,35.97
2022-10-07T02:33:13.370Z,31.93
2022-10-07T02:35:44.632Z,55.37
2022-10-07T02:38:15.626Z,62.33
2022-10-07T02:40:48.389Z,48.43
2022-10-07T02:43:29.262Z,77.10
2022-10-07T02:46:04.287Z,44.97
2022-10-07T02:48:36.422Z,76.37
2022-10-07T02:51:10.383Z,88.80
2022-10-07T02:53:39.929Z,56.33
2022-10-07T02:56:08.376Z,94.87
2022-10-07T02:58:42.332Z,63.40
2022-10-07T03:01:11.819Z,66.87
2022-10-07T03:03:40.134Z,53.43
2022-10-07T03:06:09.186Z,81.57
2022-10-07T03:08:37.278Z,75.50
2022-10-07T03:11:04.862Z,84.50
2022-10-07T03:13:32.375Z,82.53
2022-10-07T03:16:01.270Z,66.27
2022-10-07T03:18:29.360Z,82.77
2022-10-07T03:21:00.116Z,56.07
2022-10-07T03:23:28.934Z,62.80
2022-10-07T03:25:58.568Z,48.57
2022-10-07T03:28:27.893Z,63.30
2022-10-07T03:30:55.849Z,75.87
2022-10-07T03:33:26.322Z,68.27
2022-10-07T03:35:53.914Z,68.63
2022-10-07T03:38:22.553Z,56.27
2022-10-07T03:40:50.231Z,34.37
2022-10-07T03:43:18.210Z,37.27
2022-10-07T03:45:46.235Z,30.47
2022-10-07T03:48:13.763Z,32.87
2022-10-07T03:50:42.781Z,65.27
2022-10-07T03:53:10.485Z,58.70
2022-10-07T03:55:38.014Z,29.80
2022-10-07T03:58:05.558Z,47.97
2022-10-07T04:00:33.056Z,31.47
2022-10-07T04:03:00.723Z,40.13
2022-10-07T04:05:29.098Z,49.33
2022-10-07T04:07:58.564Z,80.93
2022-10-07T04:10:26.601Z,55.20
2022-10-07T04:12:54.387Z,43.93
2022-10-07T04:15:21.906Z,58.93
2022-10-07T04:17:50.609Z,45.17
2022-10-07T04:20:18.391Z,49.17
2022-10-07T04:22:45.908Z,49.03
2022-10-07T04:25:32.241Z,68.40
2022-10-07T04:28:01.013Z,61.60
2022-10-07T04:30:32.661Z,46.10
2022-10-07T04:33:00.611Z,42.47
2022-10-07T04:35:28.222Z,42.47
2022-10-07T04:37:55.790Z,38.53
2022-10-07T04:40:27.364Z,36.97
2022-10-07T04:43:12.280Z,39.30
2022-10-07T04:45:40.565Z,40.83
2022-10-07T04:48:08.161Z,46.00
2022-10-07T04:50:38.463Z,45.70
2022-10-07T04:53:06.081Z,43.73
2022-10-07T04:55:38.240Z,43.97
2022-10-07T04:58:06.445Z,43.20
2022-10-07T05:00:34.152Z,46.20
2022-10-07T05:03:01.722Z,41.57
2022-10-07T05:05:29.444Z,37.17
2022-10-07T05:07:56.972Z,42.53
2022-10-07T05:10:24.485Z,35.93
2022-10-07T05:12:56.054Z,35.97
2022-10-07T05:15:24.282Z,41.83
2022-10-07T05:17:54.066Z,38.27
2022-10-07T05:20:21.561Z,33.93
2022-10-07T05:22:49.243Z,38.50
2022-10-07T05:25:16.958Z,31.43
2022-10-07T05:27:44.790Z,41.70
2022-10-07T05:30:14.429Z,33.60
2022-10-07T05:32:41.928Z,32.23
2022-10-07T05:35:10.410Z,26.87
2022-10-07T05:37:37.915Z,29.57
2022-10-07T05:40:06.151Z,29.53
2022-10-07T05:42:33.684Z,27.67
2022-10-07T05:45:05.124Z,26.27
2022-10-07T05:47:34.299Z,34.87
2022-10-07T05:50:02.055Z,31.87
2022-10-07T05:52:30.258Z,34.13
2022-10-07T05:54:58.264Z,29.53
2022-10-07T05:57:25.945Z,33.17
2022-10-07T05:59:53.481Z,34.70
2022-10-07T06:02:21.070Z,36.27
2022-10-07T06:04:50.138Z,38.30
2022-10-07T06:07:20.938Z,39.97
2022-10-07T06:10:08.001Z,39.13
2022-10-07T06:12:49.444Z,79.73
2022-10-07T06:15:17.049Z,91.00
2022-10-07T06:17:45.184Z,76.90
2022-10-07T06:20:15.045Z,72.03
2022-10-07T06:22:42.873Z,84.60
2022-10-07T06:25:10.882Z,63.37
2022-10-07T06:27:38.402Z,56.53
2022-10-07T06:30:07.498Z,90.75
2022-10-07T06:32:35.013Z,68.40
2022-10-07T06:35:02.619Z,58.22
2022-10-07T06:37:33.089Z,68.82
2022-10-07T06:40:00.595Z,38.63
2022-10-07T06:42:28.105Z,28.93
2022-10-07T06:44:55.968Z,28.13
2022-10-07T06:47:23.501Z,64.18
2022-10-07T06:49:51.015Z,28.58
2022-10-07T06:52:18.527Z,30.55
2022-10-07T06:54:47.412Z,37.53
2022-10-07T06:57:43.850Z,30.52
2022-10-07T07:00:04.313Z,30.92
2022-10-07T07:02:31.931Z,22.95
2022-10-07T07:04:59.568Z,28.25
2022-10-07T07:07:27.170Z,30.50
2022-10-07T07:09:56.044Z,30.23
2022-10-07T07:12:25.282Z,20.83
2022-10-07T07:14:52.899Z,66.57
2022-10-07T07:17:20.412Z,37.35
2022-10-07T07:19:47.900Z,66.97
2022-10-07T07:22:15.425Z,20.35
2022-10-07T07:24:43.063Z,29.33
2022-10-07T07:27:12.132Z,35.15
2022-10-07T07:29:39.629Z,31.30
2022-10-07T07:32:08.156Z,20.42
2022-10-07T07:34:37.174Z,20.50
2022-10-07T07:37:04.827Z,57.42
2022-10-07T07:39:32.367Z,28.45
2022-10-07T07:41:59.878Z,57.00
2022-10-07T07:44:34.006Z,18.85
2022-10-07T07:47:02.607Z,18.38
2022-10-07T07:49:31.913Z,21.73
2022-10-07T07:51:59.758Z,19.70
2022-10-07T07:54:28.292Z,20.33
2022-10-07T07:56:56.513Z,17.67
2022-10-07T07:59:25.149Z,16.05
2022-10-07T08:01:54.049Z,25.67
2022-10-07T08:04:21.829Z,23.10
2022-10-07T08:06:49.339Z,22.75
2022-10-07T08:09:16.977Z,19.88
2022-10-07T08:11:45.405Z,19.95
2022-10-07T08:14:13.315Z,20.30
2022-10-07T08:16:40.900Z,18.75
2022-10-07T08:19:11.119Z,16.33
2022-10-07T08:21:39.699Z,22.45
2022-10-07T08:24:09.711Z,28.30
2022-10-07T08:26:37.982Z,20.15
2022-10-07T08:29:06.658Z,22.20
2022-10-07T08:31:35.638Z,31.70
2022-10-07T08:34:04.902Z,17.23
2022-10-07T08:36:34.632Z,9.73
2022-10-07T08:39:04.377Z,11.07
2022-10-07T08:41:43.120Z,9.90
2022-10-07T08:44:26.053Z,12.30
2022-10-07T08:46:59.947Z,13.75
2022-10-07T08:49:36.571Z,8.82
2022-10-07T08:52:20.953Z,8.52
2022-10-07T08:54:48.532Z,11.77
2022-10-07T08:57:22.993Z,6.35
2022-10-07T08:59:56.576Z,5.78
2022-10-07T09:02:33.775Z,10.95
2022-10-07T09:05:06.658Z,7.88
2022-10-07T09:07:42.941Z,7.68
2022-10-07T09:10:25.316Z,19.50
2022-10-07T09:12:57.993Z,15.15
2022-10-07T09:15:36.251Z,15.07
2022-10-07T09:18:11.536Z,9.10
2022-10-07T09:20:44.590Z,7.95
2022-10-07T09:23:16.343Z,8.73
2022-10-07T09:25:44.613Z,9.38
2022-10-07T09:28:14.935Z,11.18
2022-10-07T09:30:43.607Z,10.85
2022-10-07T09:33:17.096Z,8.75
2022-10-07T09:35:57.378Z,8.15
2022-10-07T09:38:36.539Z,9.77
2022-10-07T09:41:16.906Z,7.53
2022-10-07T09:43:56.619Z,12.40
2022-10-07T09:46:37.222Z,11.40
2022-10-07T09:49:07.373Z,6.38
2022-10-07T09:51:35.377Z,7.80
2022-10-07T09:54:07.059Z,7.50
2022-10-07T09:56:39.157Z,8.93
2022-10-07T09:59:18.899Z,10.18
2022-10-07T10:01:51.384Z,8.48
2022-10-07T10:04:20.418Z,11.65
2022-10-07T10:06:50.320Z,11.50
2022-10-07T10:09:22.979Z,11.07
2022-10-07T10:12:09.724Z,9.45
2022-10-07T10:14:44.769Z,7.18
2022-10-07T10:17:23.674Z,10.00
2022-10-07T10:19:51.243Z,7.20
2022-10-07T10:22:26.697Z,6.22
2022-10-07T10:25:16.787Z,7.72
2022-10-07T10:27:56.543Z,7.22
2022-10-07T10:30:25.541Z,6.40
2022-10-07T10:33:11.007Z,9.07
2022-10-07T10:35:44.113Z,8.88
2022-10-07T10:38:32.345Z,9.57
2022-10-07T10:41:08.949Z,13.13
2022-10-07T10:43:49.973Z,13.15
2022-10-07T10:46:34.204Z,16.55
2022-10-07T10:49:11.928Z,13.57
2022-10-07T10:51:50.508Z,16.10
2022-10-07T10:54:28.884Z,22.60
2022-10-07T10:57:05.259Z,30.52
2022-10-07T10:59:51.134Z,9.10
2022-10-07T11:02:45.172Z,10.13
2022-10-07T11:05:17.327Z,10.88
2022-10-07T11:07:49.854Z,26.88
2022-10-07T11:10:22.278Z,25.65
2022-10-07T11:12:57.004Z,17.38
2022-10-07T11:15:29.606Z,36.33
2022-10-07T11:18:01.643Z,30.33
2022-10-07T11:20:34.169Z,8.52
2022-10-07T11:23:10.535Z,4.55
2022-10-07T11:25:43.321Z,8.35
2022-10-07T11:28:18.879Z,8.93
2022-10-07T11:30:55.684Z,9.38
2022-10-07T11:33:28.684Z,9.73
2022-10-07T11:36:00.170Z,9.68
2022-10-07T11:38:32.118Z,15.02
2022-10-07T11:41:03.777Z,13.18
2022-10-07T11:43:38.105Z,14.55
2022-10-07T11:46:11.834Z,10.10
2022-10-07T11:48:44.748Z,9.60
2022-10-07T11:51:23.131Z,7.40
2022-10-07T11:53:55.022Z,14.32
2022-10-07T11:56:25.504Z,5.80
2022-10-07T11:59:03.465Z,8.40
2022-10-07T12:01:51.263Z,8.23
2022-10-07T12:04:46.027Z,13.27
2022-10-07T12:07:37.518Z,5.30
2022-10-07T12:10:21.769Z,13.10
2022-10-07T12:12:51.674Z,7.07
2022-10-07T12:15:36.284Z,6.82
2022-10-07T12:18:28.335Z,8.70
2022-10-07T12:21:04.897Z,9.25
2022-10-07T12:23:44.368Z,6.05
2022-10-07T12:26:49.127Z,8.13
2022-10-07T12:29:36.335Z,8.98
2022-10-07T12:32:05.665Z,15.18
2022-10-07T12:34:43.354Z,13.90
2022-10-07T12:37:47.151Z,13.05
2022-10-07T12:40:18.869Z,5.60
2022-10-07T12:42:54.591Z,13.82
2022-10-07T12:45:25.308Z,15.50
2022-10-07T12:47:59.049Z,12.73
2022-10-07T12:50:28.409Z,10.75
2022-10-07T12:52:58.766Z,13.43
2022-10-07T12:55:32.834Z,6.40
2022-10-07T12:58:15.712Z,13.02
2022-10-07T13:00:51.619Z,12.45
2022-10-07T13:03:44.656Z,7.05
2022-10-07T13:06:47.520Z,14.68
2022-10-07T13:09:47.540Z,13.75
2022-10-07T13:12:41.262Z,18.52
2022-10-07T13:15:19.110Z,12.30
2022-10-07T13:17:51.285Z,15.70
2022-10-07T13:20:52.736Z,13.32
2022-10-07T13:23:26.985Z,12.93
2022-10-07T13:25:58.322Z,12.63
2022-10-07T13:28:31.577Z,11.73
2022-10-07T13:31:14.111Z,10.93
2022-10-07T13:33:43.119Z,6.47
2022-10-07T13:36:18.108Z,12.80
2022-10-07T13:38:47.277Z,7.65
2022-10-07T13:41:24.506Z,14.52
2022-10-07T13:43:54.560Z,13.65
2022-10-07T13:46:24.768Z,11.48
2022-10-07T13:48:54.229Z,9.25
2022-10-07T13:51:29.128Z,11.40
2022-10-07T13:53:59.398Z,11.80
2022-10-07T13:56:30.753Z,12.50
2022-10-07T13:58:59.219Z,7.57
2022-10-07T14:01:29.551Z,11.40
2022-10-07T14:04:19.788Z,7.68
2022-10-07T14:06:55.943Z,10.65
2022-10-07T14:09:34.128Z,6.63
2022-10-07T14:12:05.440Z,10.20
2022-10-07T14:14:38.063Z,13.90
2022-10-07T14:17:11.387Z,6.85
2022-10-07T14:19:40.363Z,8.68
2022-10-07T14:22:19.961Z,9.75
2022-10-07T14:25:00.417Z,8.80
2022-10-07T14:27:40.413Z,9.38
2022-10-07T14:30:55.587Z,7.30
2022-10-07T14:33:45.591Z,9.57
2022-10-07T14:36:16.021Z,6.68
2022-10-07T14:38:46.485Z,11.70
2022-10-07T14:41:16.012Z,9.65
2022-10-07T14:43:45.751Z,8.07
2022-10-07T14:46:18.858Z,11.27
2022-10-07T14:48:46.785Z,9.48
2022-10-07T14:51:15.935Z,9.25
2022-10-07T14:53:49.063Z,9.80
2022-10-07T14:56:23.799Z,7.65
2022-10-07T14:58:51.334Z,7.63
2022-10-07T15:01:19.005Z,12.50
2022-10-07T15:03:48.638Z,10.52
2022-10-07T15:06:17.656Z,9.70
2022-10-07T15:08:47.003Z,9.43
2022-10-07T15:11:16.116Z,8.75
2022-10-07T15:13:46.477Z,8.93
2022-10-07T15:16:16.919Z,7.80
2022-10-07T15:18:51.061Z,7.70
2022-10-07T15:21:20.462Z,5.32
2022-10-07T15:23:52.978Z,7.38
2022-10-07T15:26:24.286Z,6.72
2022-10-07T15:28:53.372Z,6.63
2022-10-07T15:31:21.162Z,10.27
2022-10-07T15:33:49.223Z,14.23
2022-10-07T15:36:17.730Z,19.80
2022-10-07T15:38:45.393Z,27.65
2022-10-07T15:41:30.523Z,26.95
2022-10-07T15:43:59.132Z,28.80
2022-10-07T15:46:26.946Z,25.90
2022-10-07T15:48:56.101Z,19.23
2022-10-07T15:51:23.802Z,23.38
2022-10-07T15:53:51.339Z,27.27
2022-10-07T15:56:20.700Z,25.35
2022-10-07T15:58:48.380Z,28.50
2022-10-07T16:01:16.153Z,29.30
2022-10-07T16:03:45.748Z,29.95
2022-10-07T16:06:16.231Z,30.40
2022-10-07T16:08:44.151Z,26.40
2022-10-07T16:11:13.214Z,29.98
2022-10-07T16:13:43.881Z,30.58
2022-10-07T16:16:14.559Z,25.70
2022-10-07T16:18:45.112Z,29.25
2022-10-07T16:21:14.393Z,24.08
2022-10-07T16:23:45.404Z,24.00
2022-10-07T16:26:14.603Z,21.48
2022-10-07T16:29:02.788Z,24.85
2022-10-07T16:31:31.082Z,25.08
2022-10-07T16:33:59.002Z,27.45
2022-10-07T16:36:28.049Z,22.55
2022-10-07T16:38:57.614Z,19.05
2022-10-07T16:41:25.209Z,16.08
2022-10-07T16:43:54.478Z,15.07
2022-10-07T16:46:22.207Z,16.80
2022-10-07T16:48:50.888Z,15.85
2022-10-07T16:51:20.890Z,15.52
2022-10-07T16:53:50.159Z,17.42
2022-10-07T16:56:18.887Z,13.15
2022-10-07T16:58:47.277Z,14.60
2022-10-07T17:01:17.796Z,15.90
2022-10-07T17:03:46.735Z,13.13
2022-10-07T17:06:15.929Z,9.45
2022-10-07T17:08:48.015Z,9.32
2022-10-07T17:11:29.407Z,7.55
2022-10-07T17:13:58.468Z,11.13
2022-10-07T17:16:29.158Z,15.30
2022-10-07T17:18:56.877Z,12.40
2022-10-07T17:21:24.542Z,15.13
2022-10-07T17:23:52.119Z,14.95
2022-10-07T17:26:20.818Z,16.98
2022-10-07T17:28:49.649Z,11.57
2022-10-07T17:31:18.039Z,13.23
2022-10-07T17:33:46.985Z,16.08
2022-10-07T17:36:14.515Z,15.68
2022-10-07T17:38:43.573Z,18.63
2022-10-07T17:41:12.603Z,25.98
2022-10-07T17:43:41.377Z,22.30
2022-10-07T17:46:12.667Z,17.85
2022-10-07T17:48:43.178Z,20.00
2022-10-07T17:51:12.897Z,19.45
2022-10-07T17:53:40.798Z,18.98
2022-10-07T17:56:09.950Z,23.55
2022-10-07T17:58:38.869Z,20.13
2022-10-07T18:01:08.843Z,26.02
2022-10-07T18:03:37.800Z,23.05
2022-10-07T18:06:07.085Z,32.17
2022-10-07T18:08:36.611Z,28.30
2022-10-07T18:11:04.760Z,20.00
2022-10-07T18:13:50.758Z,25.35
2022-10-07T18:16:18.907Z,19.70
2022-10-07T18:18:47.062Z,16.77
2022-10-07T18:21:15.428Z,24.10
2022-10-07T18:23:44.397Z,28.15
2022-10-07T18:26:13.503Z,32.65
2022-10-07T18:28:41.810Z,43.33
2022-10-07T18:31:12.183Z,67.38
2022-10-07T18:33:40.188Z,39.75
2022-10-07T18:36:09.984Z,54.33
2022-10-07T18:38:39.740Z,52.08
2022-10-07T18:41:10.460Z,45.35
2022-10-07T18:43:38.890Z,60.38
2022-10-07T18:46:08.767Z,29.45
2022-10-07T18:48:37.759Z,37.03
2022-10-07T18:51:06.320Z,40.15
2022-10-07T18:53:36.085Z,49.13
2022-10-07T18:56:04.676Z,54.17
2022-10-07T18:58:35.640Z,50.45
2022-10-07T19:01:07.232Z,49.03
2022-10-07T19:03:35.699Z,75.63
2022-10-07T19:06:07.521Z,74.63
2022-10-07T19:08:35.809Z,70.00
2022-10-07T19:11:05.303Z,64.22
2022-10-07T19:13:50.883Z,68.65
2022-10-07T19:16:20.472Z,61.95
2022-10-07T19:18:51.090Z,63.95
2022-10-07T19:21:20.042Z,70.55
2022-10-07T19:23:48.292Z,69.18
2022-10-07T19:26:21.058Z,74.50
2022-10-07T19:28:52.200Z,75.78
2022-10-07T19:31:23.210Z,70.68
2022-10-07T19:33:52.571Z,78.10
2022-10-07T19:36:21.822Z,52.03
2022-10-07T19:38:52.368Z,48.67
2022-10-07T19:41:22.156Z,64.82
2022-10-07T19:43:52.057Z,72.88
2022-10-07T19:46:20.499Z,89.03
2022-10-07T19:48:48.259Z,89.40
2022-10-07T19:51:18.165Z,78.32
2022-10-07T19:53:47.384Z,81.22
2022-10-07T19:56:20.162Z,75.90
2022-10-07T19:58:49.199Z,59.72
2022-10-07T20:01:21.038Z,58.88
2022-10-07T20:03:49.206Z,42.63
2022-10-07T20:06:17.357Z,47.03
2022-10-07T20:08:46.771Z,47.33
2022-10-07T20:11:15.452Z,49.75
2022-10-07T20:13:43.387Z,40.22
2022-10-07T20:16:14.534Z,46.83
2022-10-07T20:18:43.970Z,47.85
2022-10-07T20:21:15.921Z,44.75
2022-10-07T20:23:45.286Z,43.35
2022-10-07T20:26:18.654Z,35.97
2022-10-07T20:28:47.544Z,39.97
2022-10-07T20:31:17.622Z,31.08
2022-10-07T20:33:48.019Z,33.67
2022-10-07T20:36:17.915Z,33.83
2022-10-07T20:39:03.140Z,37.47
2022-10-07T20:41:47.896Z,37.33
2022-10-07T20:44:17.561Z,33.45
2022-10-07T20:46:45.499Z,35.50
2022-10-07T20:49:22.576Z,37.55
2022-10-07T20:51:50.339Z,49.75
2022-10-07T20:54:18.505Z,43.55
2022-10-07T20:56:46.765Z,46.95
2022-10-07T20:59:14.611Z,49.42
2022-10-07T21:01:42.841Z,50.47
2022-10-07T21:04:11.812Z,43.28
2022-10-07T21:06:41.012Z,45.88
2022-10-07T21:09:09.404Z,38.88
2022-10-07T21:11:37.140Z,43.90
2022-10-07T21:14:04.996Z,46.95
2022-10-07T21:16:35.127Z,43.75
2022-10-07T21:19:02.817Z,38.55
2022-10-07T21:21:30.470Z,43.65
2022-10-07T21:23:59.322Z,51.65
2022-10-07T21:26:27.255Z,50.95
2022-10-07T21:28:54.795Z,58.95
2022-10-07T21:31:23.198Z,66.35
2022-10-07T21:33:52.919Z,73.35
2022-10-07T21:36:23.620Z,79.32
2022-10-07T21:38:55.751Z,80.32
2022-10-07T21:41:26.512Z,72.45
2022-10-07T21:43:55.473Z,76.65
2022-10-07T21:46:24.524Z,74.18
2022-10-07T21:48:54.204Z,71.65
2022-10-07T21:51:22.551Z,97.43
2022-10-07T21:53:51.950Z,104.35
2022-10-07T21:56:20.501Z,108.68
2022-10-07T21:58:52.849Z,112.53
2022-10-07T22:01:22.087Z,126.82
2022-10-07T22:03:54.322Z,122.55
2022-10-07T22:06:42.438Z,135.48
2022-10-07T22:09:09.205Z,125.07
2022-10-07T22:11:37.424Z,121.40
2022-10-07T22:14:11.385Z,127.47
2022-10-07T22:16:39.986Z,125.55
2022-10-07T22:19:07.662Z,128.88
2022-10-07T22:21:39.917Z,143.57
2022-10-07T22:24:09.244Z,135.43
2022-10-07T22:26:40.577Z,124.28
2022-10-07T22:29:10.988Z,112.82
2022-10-07T22:31:39.449Z,129.18
2022-10-07T22:34:07.895Z,125.57
2022-10-07T22:36:36.655Z,112.13
2022-10-07T22:39:05.059Z,110.40
2022-10-07T22:41:32.633Z,98.45
2022-10-07T22:44:01.168Z,98.25
2022-10-07T22:46:30.110Z,91.20
2022-10-07T22:48:58.575Z,92.60
2022-10-07T22:51:28.318Z,100.25
2022-10-07T22:53:57.610Z,116.40
2022-10-07T22:56:27.479Z,117.13
2022-10-07T22:58:58.707Z,131.85
2022-10-07T23:01:28.448Z,127.43
2022-10-07T23:04:00.670Z,133.25
2022-10-07T23:06:28.284Z,133.73
2022-10-07T23:08:56.262Z,128.55
2022-10-07T23:11:25.483Z,132.40
2022-10-07T23:13:54.448Z,136.45
2022-10-07T23:16:23.944Z,129.13
2022-10-07T23:18:53.588Z,137.35
2022-10-07T23:21:24.138Z,133.73
2022-10-07T23:23:53.329Z,138.38
2022-10-07T23:26:23.166Z,157.25
2022-10-07T23:28:52.608Z,153.38
2022-10-07T23:31:21.894Z,165.65
2022-10-07T23:33:51.308Z,167.95
2022-10-07T23:36:20.948Z,177.48
2022-10-07T23:38:50.633Z,185.48
2022-10-07T23:41:20.469Z,188.93
2022-10-07T23:43:49.129Z,168.23
2022-10-07T23:46:16.806Z,159.02
2022-10-07T23:48:45.019Z,158.48
2022-10-07T23:51:15.795Z,156.85
2022-10-07T23:53:43.363Z,177.13
2022-10-07T23:56:12.443Z,168.32
2022-10-07T23:58:40.374Z,168.48
